Latest Weather Observations for Dunalley

IDT60901

Issued at 6:51 am EDT Saturday 16 October 2021 (issued every 10 minutes, with the page automatically refreshed every 10 minutes)

About weather observations | Map of Hobart area stations | Latest observations for Hobart area | Other Formats
Station Details ID: 094254 Name: DUNALLEY (STROUD POINT) Lat: -42.90 Lon: 147.79 Height: 12.43 m
Data from the previous 72 hours. | See also: Recent months at Dunalley
Date/Time
EDT
Temp
°C
App
Temp
°C
Dew
Point
°C
Rel
Hum
%
Delta-T
°C
Wind Press
QNH
hPa
Press
MSL
hPa
Rain since
9am
mm
Dir  Spd
km/h
Gust
km/h
Spd
kts
Gust
kts
16/06:30am 10.8 0.4 9.4 91 0.7 SSW 54 69 29 37 996.0 996.0 6.2
16/06:20am 10.9 0.9 9.5 91 0.7 SSW 52 72 28 39 996.0 996.0 6.2
16/06:00am 10.8 0.8 9.4 91 0.7 SSW 52 65 28 35 995.5 995.5 5.8
16/05:30am 10.6 -1.1 9.2 91 0.7 SSW 61 82 33 44 995.0 995.0 5.4
16/05:29am 10.7 -0.6 9.3 91 0.7 SSW 59 82 32 44 995.0 995.0 5.4
16/05:00am 10.8 -0.9 9.4 91 0.7 SSW 61 76 33 41 994.8 994.8 5.2
16/04:36am 10.7 -0.6 9.3 91 0.7 SW 59 78 32 42 994.5 994.5 5.0
16/04:30am 10.8 -1.3 9.4 91 0.7 SW 63 80 34 43 994.7 994.7 4.8
16/04:16am 10.7 -1.8 9.1 90 0.8 SW 65 91 35 49 994.4 994.4 4.8
16/04:12am 10.8 0.4 9.4 91 0.7 SW 54 91 29 49 994.3 994.3 4.8
16/04:05am 10.9 0.9 9.5 91 0.7 SW 52 72 28 39 994.8 994.8 4.6
16/04:00am 10.9 0.2 9.5 91 0.7 SW 56 72 30 39 994.6 994.6 4.6
16/03:44am 10.7 -0.1 9.3 91 0.7 SW 56 74 30 40 994.4 994.4 4.6
16/03:30am 10.7 0.3 9.3 91 0.7 SW 54 67 29 36 994.6 994.6 4.4
16/03:00am 10.7 0.4 9.5 92 0.6 SW 54 72 29 39 994.7 994.7 4.2
16/02:56am 10.7 1.5 9.5 92 0.6 SW 48 69 26 37 994.8 994.8 4.2
16/02:30am 10.9 1.4 9.7 92 0.6 SW 50 67 27 36 994.7 994.7 3.8
16/02:00am 11.2 2.2 10.1 93 0.6 SW 48 61 26 33 994.5 994.5 3.8
16/01:30am 11.8 3.3 10.5 92 0.7 SW 46 56 25 30 994.3 994.3 3.8
16/01:00am 12.2 6.2 10.9 92 0.7 SW 33 41 18 22 994.5 994.5 3.8
16/12:30am 12.7 7.4 11.3 91 0.7 SW 30 35 16 19 994.4 994.4 3.8
16/12:00am 12.8 9.1 11.4 91 0.7 SW 22 30 12 16 994.6 994.6 3.8
 
Date/Time
EDT
Temp
°C
App
Temp
°C
Dew
Point
°C
Rel
Hum
%
Delta-T
°C
Wind Press
QNH
hPa
Press
MSL
hPa
Rain since
9am
mm
Dir  Spd
km/h
Gust
km/h
Spd
kts
Gust
kts
15/11:30pm 12.9 9.6 11.6 92 0.7 SW 20 24 11 13 994.4 994.4 3.8
15/11:00pm 12.9 8.8 11.5 91 0.7 WSW 24 28 13 15 994.6 994.6 3.8
15/10:30pm 13.0 11.0 11.4 90 0.8 WSW 13 15 7 8 994.9 994.9 3.8
15/10:00pm 12.5 9.9 10.7 89 0.9 W 15 17 8 9 994.8 994.8 3.8
15/09:30pm 12.2 11.2 10.3 88 1.0 NE 6 6 3 3 994.8 994.8 3.8
15/09:00pm 12.5 12.7 10.6 88 1.0 CALM 0 0 0 0 994.9 994.9 3.8
15/08:30pm 12.6 12.8 10.5 87 1.1 CALM 0 0 0 0 994.9 994.9 3.8
15/08:00pm 12.9 12.0 10.8 87 1.1 NE 6 7 3 4 994.6 994.6 3.8
15/07:30pm 13.2 12.2 10.9 86 1.2 NE 7 9 4 5 994.6 994.6 3.8
15/07:00pm 13.3 9.8 10.8 85 1.3 NE 20 24 11 13 994.4 994.4 3.8
15/06:30pm 13.9 10.1 11.2 84 1.4 NE 22 26 12 14 994.3 994.3 3.8
15/06:00pm 15.2 14.2 12.3 83 1.6 NNE 9 13 5 7 993.7 993.7 3.8
15/05:30pm 15.4 14.2 12.9 85 1.4 NNE 11 15 6 8 993.6 993.6 3.8
15/05:00pm 15.6 14.6 13.3 86 1.3 NE 11 15 6 8 993.2 993.2 3.8
15/04:30pm 15.8 13.4 13.8 88 1.1 NE 19 22 10 12 993.7 993.7 3.8
15/04:00pm 15.4 13.0 13.8 90 0.9 ENE 19 22 10 12 994.0 994.0 3.8
15/03:30pm 15.2 13.1 13.7 91 0.8 ENE 17 20 9 11 994.3 994.3 3.8
15/03:00pm 16.0 13.3 14.7 92 0.8 NE 22 26 12 14 994.3 994.3 3.8
15/02:30pm 15.5 13.7 14.4 93 0.6 ENE 17 20 9 11 994.3 994.3 3.8
15/02:00pm 16.4 16.5 15.4 94 0.6 ENE 9 13 5 7 994.4 994.4 3.8
15/01:30pm 15.0 15.5 14.0 94 0.6 SSE 4 7 2 4 994.9 994.9 3.8
15/01:00pm 14.9 15.4 13.9 94 0.6 ENE 4 6 2 3 995.2 995.2 3.8
15/12:30pm 14.7 15.6 13.9 95 0.4 E 2 4 1 2 995.8 995.8 3.4
15/12:00pm 14.5 14.3 13.7 95 0.5 E 7 9 4 5 995.9 995.9 3.4
15/11:30am 14.2 12.4 13.4 95 0.4 ENE 15 19 8 10 996.6 996.6 3.4
15/11:00am 13.9 12.0 13.1 95 0.4 ENE 15 20 8 11 997.2 997.2 3.0
15/10:30am 13.7 11.0 12.9 95 0.4 ENE 19 24 10 13 997.6 997.6 1.4
15/10:00am 13.6 9.5 12.8 95 0.4 ENE 26 33 14 18 997.9 997.9 1.2
15/09:30am 13.5 8.6 12.6 94 0.5 ENE 30 41 16 22 998.2 998.2 0.6
15/09:00am 13.5 8.6 12.6 94 0.5 ENE 30 39 16 21 998.3 998.3 18.2
15/08:30am 13.5 9.8 12.6 94 0.5 E 24 33 13 18 998.8 998.8 15.8
15/08:00am 13.3 10.3 12.4 94 0.5 E 20 26 11 14 999.1 999.1 15.0
15/07:30am 13.1 9.6 12.2 94 0.5 E 22 30 12 16 999.4 999.4 15.0
15/07:00am 12.9 9.3 12.0 94 0.5 E 22 30 12 16 999.7 999.7 14.4
15/06:30am 13.0 9.5 12.1 94 0.5 E 22 32 12 17 1000.1 1000.1 14.0
15/06:00am 13.1 9.6 12.3 95 0.4 E 22 30 12 16 1000.3 1000.3 14.0
15/05:30am 12.9 8.6 12.1 95 0.4 E 26 39 14 21 1000.6 1000.6 14.0
15/05:00am 13.0 8.7 12.2 95 0.4 E 26 35 14 19 1001.0 1001.0 13.6
15/04:30am 13.0 8.4 12.2 95 0.4 ENE 28 39 15 21 1001.6 1001.6 13.4
15/04:00am 12.9 8.2 12.1 95 0.4 ENE 28 39 15 21 1002.0 1002.0 13.4
15/03:30am 12.9 9.0 12.1 95 0.4 ENE 24 33 13 18 1002.5 1002.5 12.4
15/03:00am 12.9 8.6 12.1 95 0.4 ENE 26 37 14 20 1003.0 1003.0 12.2
15/02:30am 12.8 8.5 12.0 95 0.4 ENE 26 33 14 18 1003.4 1003.4 11.8
15/02:00am 12.9 8.6 12.1 95 0.4 ENE 26 37 14 20 1004.1 1004.1 11.8
15/01:30am 12.9 9.0 12.1 95 0.4 ENE 24 35 13 19 1004.8 1004.8 11.6
15/01:00am 12.9 9.4 12.1 95 0.4 ENE 22 28 12 15 1005.0 1005.0 11.6
15/12:30am 12.9 8.2 12.1 95 0.4 NE 28 35 15 19 1005.3 1005.3 11.4
15/12:00am 12.9 7.9 12.1 95 0.4 NE 30 37 16 20 1005.6 1005.6 11.4
 
Date/Time
EDT
Temp
°C
App
Temp
°C
Dew
Point
°C
Rel
Hum
%
Delta-T
°C
Wind Press
QNH
hPa
Press
MSL
hPa
Rain since
9am
mm
Dir  Spd
km/h
Gust
km/h
Spd
kts
Gust
kts
14/11:30pm 12.9 8.6 12.1 95 0.4 NE 26 35 14 19 1006.1 1006.1 11.4
14/11:00pm 12.9 7.5 12.1 95 0.4 NE 32 43 17 23 1006.4 1006.4 11.4
14/10:30pm 12.8 7.2 12.0 95 0.4 ENE 33 43 18 23 1006.6 1006.6 10.8
14/10:00pm 12.7 7.6 11.8 94 0.5 NE 30 41 16 22 1007.0 1007.0 10.0
14/09:30pm 12.7 6.6 11.8 94 0.5 ENE 35 43 19 23 1007.2 1007.2 9.8
14/09:00pm 12.7 6.6 11.8 94 0.5 ENE 35 46 19 25 1007.3 1007.3 9.2
14/08:30pm 12.6 6.9 11.7 94 0.5 ENE 33 46 18 25 1007.5 1007.5 8.4
14/08:00pm 12.3 7.0 11.4 94 0.5 ENE 30 39 16 21 1007.6 1007.6 7.8
14/07:30pm 12.3 7.4 11.2 93 0.6 ENE 28 35 15 19 1007.8 1007.8 6.2
14/07:00pm 12.3 8.1 11.2 93 0.6 ENE 24 32 13 17 1008.0 1008.0 3.6
14/06:30pm 12.2 7.2 11.1 93 0.6 ENE 28 35 15 19 1008.1 1008.1 3.2
14/06:00pm 12.2 6.4 10.9 92 0.7 ENE 32 37 17 20 1008.1 1008.1 3.0
14/05:30pm 12.1 7.1 10.8 92 0.7 ENE 28 37 15 20 1008.3 1008.3 3.0
14/05:00pm 12.1 6.7 10.8 92 0.7 ENE 30 39 16 21 1008.6 1008.6 2.4
14/04:30pm 12.0 5.9 10.6 91 0.7 NE 33 43 18 23 1008.9 1008.9 1.8
14/04:00pm 12.0 5.9 10.6 91 0.7 NE 33 41 18 22 1009.3 1009.3 1.0
14/03:30pm 12.1 5.3 10.7 91 0.7 NE 37 46 20 25 1009.5 1009.5 0.6
14/03:00pm 12.3 5.1 10.7 90 0.8 NE 39 52 21 28 1009.6 1009.6 0.4
14/02:30pm 12.5 6.1 10.7 89 0.9 NE 35 48 19 26 1010.0 1010.0 0.4
14/02:00pm 12.8 7.4 10.9 88 1.0 NE 30 41 16 22 1010.6 1010.6 0.2
14/01:30pm 12.6 8.3 10.7 88 1.0 ENE 24 35 13 19 1010.9 1010.9 0.2
14/01:00pm 12.2 8.0 9.9 86 1.2 ENE 22 32 12 17 1011.2 1011.2 0.2
14/12:30pm 12.2 7.6 9.6 84 1.3 ENE 24 32 13 17 1011.6 1011.6 0.2
14/12:00pm 12.4 4.0 9.1 80 1.7 NE 43 57 23 31 1011.7 1011.7 0.2
14/11:53am 13.5 6.4 9.6 77 2.0 NE 37 57 20 31 1011.5 1011.5 0.0
14/11:30am 13.6 6.5 9.5 76 2.1 NE 37 46 20 25 1011.8 1011.8 0.0
14/11:00am 13.3 4.8 9.2 76 2.1 NE 44 56 24 30 1011.7 1011.7 0.0
14/10:30am 13.8 5.4 9.5 75 2.2 NE 44 56 24 30 1011.9 1011.9 0.0
14/10:00am 14.0 6.2 9.8 76 2.2 ENE 41 54 22 29 1012.4 1012.4 0.0
14/09:30am 14.2 8.1 10.4 78 2.0 ENE 33 44 18 24 1012.5 1012.5 0.0
14/09:00am 13.4 7.5 10.4 82 1.6 NE 32 43 17 23 1012.7 1012.7 0.4
14/08:30am 12.1 7.1 9.7 85 1.2 NE 26 33 14 18 1013.0 1013.0 0.4
14/08:00am 12.1 7.9 9.8 86 1.2 NE 22 37 12 20 1013.0 1013.0 0.4
14/07:30am 12.2 6.0 9.9 86 1.2 NE 33 44 18 24 1013.1 1013.1 0.4
14/07:00am 11.4 7.1 9.3 87 1.1 NE 22 30 12 16 1013.3 1013.3 0.4
14/06:30am 11.2 5.7 9.1 87 1.0 NE 28 37 15 20 1013.3 1013.3 0.4
14/06:00am 11.5 4.4 9.4 87 1.1 NE 37 48 20 26 1013.1 1013.1 0.2
14/05:30am 11.3 4.5 9.2 87 1.0 NE 35 43 19 23 1012.8 1012.8 0.2
14/05:00am 11.9 5.6 9.6 86 1.2 NE 33 46 18 25 1012.6 1012.6 0.2
14/04:30am 11.5 4.7 9.4 87 1.1 NE 35 48 19 26 1012.9 1012.9 0.2
14/04:00am 11.8 5.6 9.5 86 1.2 NE 32 43 17 23 1013.3 1013.3 0.2
14/03:30am 11.5 6.5 9.4 87 1.1 NE 26 35 14 19 1013.5 1013.5 0.2
14/03:00am 11.5 3.9 9.1 85 1.2 NE 39 52 21 28 1013.6 1013.6 0.2
14/02:30am 11.9 5.7 9.3 84 1.3 NE 32 43 17 23 1014.0 1014.0 0.2
14/02:00am 11.6 5.1 9.0 84 1.3 NE 33 46 18 25 1014.4 1014.4 0.2
14/01:30am 11.6 5.0 8.6 82 1.5 NE 33 43 18 23 1014.8 1014.8 0.2
14/01:00am 11.4 6.1 8.4 82 1.5 ENE 26 33 14 18 1015.3 1015.3 0.2
14/12:30am 11.4 7.2 8.3 81 1.5 ENE 20 26 11 14 1015.8 1015.8 0.2
14/12:00am 11.7 6.7 8.2 79 1.7 NE 24 32 13 17 1016.2 1016.2 0.2
 
Date/Time
EDT
Temp
°C
App
Temp
°C
Dew
Point
°C
Rel
Hum
%
Delta-T
°C
Wind Press
QNH
hPa
Press
MSL
hPa
Rain since
9am
mm
Dir  Spd
km/h
Gust
km/h
Spd
kts
Gust
kts
13/11:30pm 11.8 7.7 7.7 76 2.0 NE 19 28 10 15 1016.5 1016.5 0.2
13/11:00pm 11.5 7.1 7.2 75 2.1 NE 20 32 11 17 1016.6 1016.6 0.2
13/10:30pm 11.5 6.8 7.6 77 1.9 NE 22 30 12 16 1016.7 1016.7 0.2
13/10:00pm 11.9 7.4 8.6 80 1.6 NE 22 30 12 16 1016.9 1016.9 0.2
13/09:30pm 11.0 6.8 8.2 83 1.4 NNE 20 28 11 15 1017.0 1017.0 0.2
13/09:00pm 10.8 5.7 7.5 80 1.6 NNE 24 33 13 18 1017.0 1017.0 0.0
13/08:30pm 12.0 6.9 7.7 75 2.1 NE 24 37 13 20 1016.9 1016.9 0.0
13/08:06pm 12.4 5.7 7.5 72 2.4 NE 32 52 17 28 1016.8 1016.8 0.0
13/08:00pm 12.4 6.1 7.5 72 2.4 NE 30 41 16 22 1016.8 1016.8 0.0
13/07:30pm 12.4 6.1 7.3 71 2.5 NE 30 39 16 21 1016.6 1016.6 0.0
13/07:00pm 12.4 6.0 7.1 70 2.5 NE 30 41 16 22 1016.4 1016.4 0.0
13/06:30pm 12.9 6.2 7.4 69 2.7 NE 32 43 17 23 1016.2 1016.2 0.0
13/06:00pm 12.8 5.9 7.3 69 2.7 NE 33 46 18 25 1016.0 1016.0 0.0
13/05:30pm 13.2 6.4 7.6 69 2.7 NE 33 44 18 24 1015.9 1015.9 0.0
13/05:00pm 13.8 6.1 6.9 63 3.3 NE 37 46 20 25 1015.8 1015.8 0.0
13/04:30pm 13.8 5.6 6.7 62 3.4 NE 39 52 21 28 1015.7 1015.7 0.0
13/04:00pm 13.1 5.4 6.9 66 3.0 NE 37 46 20 25 1016.1 1016.1 0.0
13/03:30pm 13.3 4.8 7.1 66 3.0 NE 41 59 22 32 1016.2 1016.2 0.0
13/03:00pm 14.6 6.5 6.9 60 3.7 NE 39 50 21 27 1016.4 1016.4 0.0
13/02:30pm 14.1 6.7 6.7 61 3.6 NE 35 48 19 26 1016.6 1016.6 0.0
13/02:00pm 13.6 6.1 6.2 61 3.5 NE 35 50 19 27 1016.7 1016.7 0.0
13/01:30pm 15.1 8.2 7.2 59 3.9 NE 33 43 18 23 1017.0 1017.0 0.0
13/01:00pm 13.0 6.0 6.1 63 3.3 NNE 32 41 17 22 1017.2 1017.2 0.0
13/12:30pm 12.8 5.8 6.2 64 3.1 NE 32 41 17 22 1017.4 1017.4 0.0
13/12:00pm 12.5 5.7 6.8 68 2.7 NE 32 44 17 24 1017.8 1017.8 0.0
13/11:42am 13.0 6.2 6.8 66 3.0 NE 32 50 17 27 1017.9 1017.9 0.0
13/11:30am 13.3 7.1 7.7 69 2.8 NE 30 37 16 20 1018.1 1018.1 0.0
13/11:00am 11.4 4.2 6.1 70 2.5 NNE 33 44 18 24 1018.5 1018.5 0.0
13/10:30am 12.9 7.4 7.4 69 2.7 NE 26 35 14 19 1018.8 1018.8 0.0
13/10:00am 12.5 7.0 5.9 64 3.1 NNE 24 35 13 19 1018.9 1018.9 0.0
13/09:30am 12.4 7.5 4.9 60 3.4 NE 20 32 11 17 1019.1 1019.1 0.0
13/09:00am 11.8 7.0 4.5 61 3.3 NNE 19 24 10 13 1019.4 1019.4 0.0
13/08:30am 11.6 7.4 3.6 58 3.5 NNE 15 22 8 12 1019.5 1019.5 0.0
13/08:00am 11.4 7.6 3.7 59 3.4 N 13 28 7 15 1019.5 1019.5 0.0
13/07:30am 11.1 6.9 3.6 60 3.3 N 15 22 8 12 1019.5 1019.5 0.0
13/07:00am 10.8 6.9 3.4 60 3.2 NNE 13 20 7 11 1019.3 1019.3 0.0

Latest Capital City Observations: Canberra | Sydney | Melbourne | Brisbane | Adelaide | Perth | Hobart | Darwin

Other formats

Comma delimited format used in spreadsheet applications
http://www.bom.gov.au/fwo/IDT60901/IDT60901.94951.axf

JavaScript Object Notation format (JSON) in row-major order
http://www.bom.gov.au/fwo/IDT60901/IDT60901.94951.json

Data quality

Most of these data are generated automatically and are frequently updated. Quality checks on data are not normally performed. It is possible for incorrect values to appear. Refer to information at About Latest Weather Observations and please check the disclaimer before using these data.